WetterOnline ( http://www.wetteronline.de )

Wetter aktuell Freising

Aktuelles Wetter: Weihenstephan-Dürnast (478m)

6-stündlich | Neueste Meldungen
Ortszeit Temperatur Wetter
Mi, 20.02. 7:00 3.2° C bedeckt
Mi, 20.02. 1:00 4.8° C bedeckt
Di, 19.02. 19:00 8.9° C bedeckt
Di, 19.02. 13:00 9.5° C bewölkt
Di, 19.02. 7:00 0.4° C wolkig
Di, 19.02. 1:00 -1.6° C wolkenlos
Mo, 18.02. 19:00 3.7° C wolkenlos
Mo, 18.02. 13:00 9.5° C wolkenlos
Ortszeit Temperatur Wetter
Mi, 20.02. 11:00 6.8° C bedeckt
Mi, 20.02. 10:50 6.8° C bedeckt
Mi, 20.02. 10:40 6.6° C bedeckt
Mi, 20.02. 10:30 6.4° C bedeckt
Mi, 20.02. 10:20 6.4° C bedeckt
Mi, 20.02. 10:10 6.1° C bedeckt
Mi, 20.02. 10:00 5.8° C bedeckt
Mi, 20.02. 9:30 5.0° C bedeckt
Mi, 20.02. 9:00 4.1° C bedeckt
Mi, 20.02. 8:30 4.2° C bedeckt
Mi, 20.02. 8:00 3.5° C bedeckt
Ortszeit Relative Feuchte Sichtweite
Mi, 20.02. 7:00 95% 9 km
Mi, 20.02. 1:00 86% 16 km
Di, 19.02. 19:00 67% 24 km
Di, 19.02. 13:00 60% 23 km
Di, 19.02. 7:00 83% 14 km
Di, 19.02. 1:00 94% 10 km
Mo, 18.02. 19:00 73% 40 km
Mo, 18.02. 13:00 41% 30 km
Ortszeit Relative Feuchte Sichtweite
Mi, 20.02. 11:00 78% 14 km
Mi, 20.02. 10:50 78% -
Mi, 20.02. 10:40 77% -
Mi, 20.02. 10:30 82% 10 km
Mi, 20.02. 10:20 82% -
Mi, 20.02. 10:10 80% -
Mi, 20.02. 10:00 83% 8 km
Mi, 20.02. 9:30 89% 8 km
Mi, 20.02. 9:00 92% 8 km
Mi, 20.02. 8:30 91% 8 km
Mi, 20.02. 8:00 94% 8 km
Ortszeit Niederschlagsmenge Niederschlagsart
Mi, 20.02. 7:00 0.1 l/m2 in 12 Std. -
Mi, 20.02. 1:00 0.1 l/m2 in 6 Std. Regen
Di, 19.02. 19:00 0.0 l/m2 in 12 Std. -
Di, 19.02. 13:00 0.0 l/m2 in 6 Std. -
Di, 19.02. 7:00 0.0 l/m2 in 12 Std. -
Di, 19.02. 1:00 0.0 l/m2 in 6 Std. -
Mo, 18.02. 19:00 0.0 l/m2 in 12 Std. -
Mo, 18.02. 13:00 0.0 l/m2 in 6 Std. -
Ortszeit Niederschlagsmenge Niederschlagsart
Mi, 20.02. 11:00 0.0 l/m2 in 1 Std. -
Mi, 20.02. 10:50 keine Meldung -
Mi, 20.02. 10:40 keine Meldung -
Mi, 20.02. 10:30 0.0 l/m2 in 1 Std. -
Mi, 20.02. 10:20 keine Meldung -
Mi, 20.02. 10:10 keine Meldung -
Mi, 20.02. 10:00 0.0 l/m2 in 1 Std. -
Mi, 20.02. 9:30 0.0 l/m2 in 1 Std. -
Mi, 20.02. 9:00 0.0 l/m2 in 1 Std. -
Mi, 20.02. 8:30 0.0 l/m2 in 1 Std. -
Mi, 20.02. 8:00 0.0 l/m2 in 1 Std. -
Ortszeit Stärke Spitze Richtung
km/h Bft. km/h Grad Sektor
Mi, 20.02. 7:00 0 0 7 - -
Mi, 20.02. 1:00 6 1 20 260° W
Di, 19.02. 19:00 9 2 33 300° NW
Di, 19.02. 13:00 19 3 31 260° W
Di, 19.02. 7:00 4 1 11 230° SW
Di, 19.02. 1:00 4 1 4 280° W
Mo, 18.02. 19:00 4 1 14 290° W
Mo, 18.02. 13:00 7 2 11 140° SO
Ortszeit Stärke Spitze Richtung
km/h Bft. km/h Grad Sektor
Mi, 20.02. 11:00 7 2 11 250° W
Mi, 20.02. 10:50 7 2 - 250° W
Mi, 20.02. 10:40 7 2 - 230° SW
Mi, 20.02. 10:30 7 2 11 230° SW
Mi, 20.02. 10:20 7 2 - 230° SW
Mi, 20.02. 10:10 7 2 - 240° SW
Mi, 20.02. 10:00 7 2 11 250° W
Mi, 20.02. 9:30 2 1 4 240° SW
Mi, 20.02. 9:00 2 1 6 350° N
Mi, 20.02. 8:30 2 1 4 210° SW
Mi, 20.02. 8:00 2 1 4 280° W
Ortszeit Untergrenze Bedeckung Gattung
total tief tief mittel hoch
Mi, 20.02. 7:00 990 m 8/8 8/8 - - -
Mi, 20.02. 1:00 1230 m 8/8 8/8 - - -
Di, 19.02. 19:00 1320 m 8/8 8/8 - - -
Di, 19.02. 13:00 1800 m 7/8 6/8 - - -
Di, 19.02. 7:00 10500 m 8/8 0/8 - - -
Di, 19.02. 1:00 - 0/8 0/8 - - -
Mo, 18.02. 19:00 - 0/8 0/8 - - -
Mo, 18.02. 13:00 - 0/8 0/8 - - -
Ortszeit Bedeckungsgrad in Achtel und Wolkenuntergrenze
Mi, 20.02. 11:00 8(930m) 8(3600m) 8(4200m)
Mi, 20.02. 10:50 8(930m) 8(3600m) 8(4200m)
Mi, 20.02. 10:40 8(900m) 8(3600m) 8(4200m)
Mi, 20.02. 10:30 8(840m)
Mi, 20.02. 10:20 8(840m)
Mi, 20.02. 10:10 8(840m)
Mi, 20.02. 10:00 8(870m)
Mi, 20.02. 9:30 8(900m)
Mi, 20.02. 9:00 6(870m) 8(1050m) 8(3900m)
Mi, 20.02. 8:30 8(1020m) 8(3900m) 8(3900m)
Mi, 20.02. 8:00 8(990m)
Ortszeit Luftdruck NN (hPa) Tendenz (hPa in 3 Std.)
Mi, 20.02. 7:00 1025 + 0,5
Mi, 20.02. 1:00 1024 + 0,8
Di, 19.02. 19:00 1021 + 0,7
Di, 19.02. 13:00 1021 - 0,3
Di, 19.02. 7:00 1023 + 0,9
Di, 19.02. 1:00 1022 + 0,2
Mo, 18.02. 19:00 1021 - 0,4
Mo, 18.02. 13:00 1022 - 1,4
Ortszeit Luftdruck NN (hPa) Tendenz (hPa in 3 Std.)
Mi, 20.02. 11:00 1026 + 1,1
Mi, 20.02. 10:50 1026 keine Meldung
Mi, 20.02. 10:40 1026 keine Meldung
Mi, 20.02. 10:30 1026 + 1,3
Mi, 20.02. 10:20 1026 keine Meldung
Mi, 20.02. 10:10 1026 keine Meldung
Mi, 20.02. 10:00 1026 + 1,2
Mi, 20.02. 9:30 1026 + 1,3
Mi, 20.02. 9:00 1026 + 1,3
Mi, 20.02. 8:30 1026 + 1,1
Mi, 20.02. 8:00 1025 + 0,8
Ortszeit Schneehöhe (cm)
Mi, 20.02. 7:00 0
Mi, 20.02. 1:00 0
Di, 19.02. 19:00 0
Di, 19.02. 13:00 0
Di, 19.02. 7:00 0
Di, 19.02. 1:00 0
Mo, 18.02. 19:00 -
Mo, 18.02. 13:00 -
Ortszeit Schneehöhe (cm)
Mi, 20.02. 11:00 0
Mi, 20.02. 10:50 0
Mi, 20.02. 10:40 0
Mi, 20.02. 10:30 0
Mi, 20.02. 10:20 0
Mi, 20.02. 10:10 0
Mi, 20.02. 10:00 0
Mi, 20.02. 9:30 0
Mi, 20.02. 9:00 0
Mi, 20.02. 8:30 0
Mi, 20.02. 8:00 0
Link zu dieser Seite / Seite empfehlen

Das Wetter in ...